sensor_id;sensor_type;location;lat;lon;timestamp;P1;durP1;ratioP1;P2;durP2;ratioP2
31734;SDS011;18313;48.518;9.124;2023-05-07T00:02:01;4.85;;;2.30;;
31734;SDS011;18313;48.518;9.124;2023-05-07T00:04:32;3.83;;;2.40;;
31734;SDS011;18313;48.518;9.124;2023-05-07T00:07:03;4.78;;;2.33;;
31734;SDS011;18313;48.518;9.124;2023-05-07T00:09:30;4.70;;;2.42;;
31734;SDS011;18313;48.518;9.124;2023-05-07T00:11:57;4.32;;;2.40;;
31734;SDS011;18313;48.518;9.124;2023-05-07T00:14:24;3.83;;;2.00;;
31734;SDS011;18313;48.518;9.124;2023-05-07T00:16:52;3.30;;;1.92;;
31734;SDS011;18313;48.518;9.124;2023-05-07T00:19:19;3.20;;;1.92;;
31734;SDS011;18313;48.518;9.124;2023-05-07T00:21:46;3.40;;;2.10;;
31734;SDS011;18313;48.518;9.124;2023-05-07T00:24:13;3.50;;;2.10;;
31734;SDS011;18313;48.518;9.124;2023-05-07T00:26:40;3.42;;;1.90;;
31734;SDS011;18313;48.518;9.124;2023-05-07T00:29:07;3.85;;;2.58;;
31734;SDS011;18313;48.518;9.124;2023-05-07T00:31:34;2.97;;;1.83;;
31734;SDS011;18313;48.518;9.124;2023-05-07T00:34:01;5.03;;;1.83;;
31734;SDS011;18313;48.518;9.124;2023-05-07T00:36:28;4.78;;;2.58;;
31734;SDS011;18313;48.518;9.124;2023-05-07T00:38:56;4.47;;;2.30;;
31734;SDS011;18313;48.518;9.124;2023-05-07T00:41:25;3.10;;;2.00;;
31734;SDS011;18313;48.518;9.124;2023-05-07T00:43:52;7.15;;;2.20;;
31734;SDS011;18313;48.518;9.124;2023-05-07T00:46:22;5.38;;;2.20;;
31734;SDS011;18313;48.518;9.124;2023-05-07T00:48:50;5.22;;;2.10;;
31734;SDS011;18313;48.518;9.124;2023-05-07T00:51:17;4.88;;;1.98;;
31734;SDS011;18313;48.518;9.124;2023-05-07T00:53:45;4.55;;;2.00;;
31734;SDS011;18313;48.518;9.124;2023-05-07T00:56:12;3.88;;;2.17;;
31734;SDS011;18313;48.518;9.124;2023-05-07T00:58:40;3.72;;;2.42;;
31734;SDS011;18313;48.518;9.124;2023-05-07T01:01:07;4.63;;;2.03;;
31734;SDS011;18313;48.518;9.124;2023-05-07T01:03:34;2.75;;;2.00;;
31734;SDS011;18313;48.518;9.124;2023-05-07T01:06:02;5.00;;;2.20;;
31734;SDS011;18313;48.518;9.124;2023-05-07T01:08:30;4.47;;;2.28;;
31734;SDS011;18313;48.518;9.124;2023-05-07T01:10:58;4.15;;;2.47;;
31734;SDS011;18313;48.518;9.124;2023-05-07T01:13:27;5.13;;;2.50;;
31734;SDS011;18313;48.518;9.124;2023-05-07T01:15:54;5.20;;;2.65;;
31734;SDS011;18313;48.518;9.124;2023-05-07T01:18:21;4.43;;;2.30;;
31734;SDS011;18313;48.518;9.124;2023-05-07T01:20:48;4.10;;;2.60;;
31734;SDS011;18313;48.518;9.124;2023-05-07T01:23:15;5.07;;;2.72;;
31734;SDS011;18313;48.518;9.124;2023-05-07T01:25:50;7.80;;;2.60;;
31734;SDS011;18313;48.518;9.124;2023-05-07T01:28:21;4.22;;;2.40;;
31734;SDS011;18313;48.518;9.124;2023-05-07T01:30:53;7.43;;;2.42;;
31734;SDS011;18313;48.518;9.124;2023-05-07T01:35:51;4.53;;;2.70;;
31734;SDS011;18313;48.518;9.124;2023-05-07T01:38:20;6.30;;;2.85;;
31734;SDS011;18313;48.518;9.124;2023-05-07T01:40:49;4.68;;;2.90;;
31734;SDS011;18313;48.518;9.124;2023-05-07T01:43:16;4.63;;;2.50;;
31734;SDS011;18313;48.518;9.124;2023-05-07T01:45:44;6.57;;;2.60;;
31734;SDS011;18313;48.518;9.124;2023-05-07T01:48:12;5.70;;;2.75;;
31734;SDS011;18313;48.518;9.124;2023-05-07T01:50:42;9.65;;;3.35;;
31734;SDS011;18313;48.518;9.124;2023-05-07T01:53:10;4.07;;;2.70;;
31734;SDS011;18313;48.518;9.124;2023-05-07T01:55:37;5.03;;;2.88;;
31734;SDS011;18313;48.518;9.124;2023-05-07T01:58:04;6.22;;;3.25;;
31734;SDS011;18313;48.518;9.124;2023-05-07T02:00:31;5.68;;;2.60;;
31734;SDS011;18313;48.518;9.124;2023-05-07T02:02:59;6.47;;;2.95;;
31734;SDS011;18313;48.518;9.124;2023-05-07T02:05:26;6.03;;;3.28;;
31734;SDS011;18313;48.518;9.124;2023-05-07T02:07:53;7.93;;;3.10;;
31734;SDS011;18313;48.518;9.124;2023-05-07T02:10:20;4.97;;;3.35;;
31734;SDS011;18313;48.518;9.124;2023-05-07T02:12:47;7.38;;;3.80;;
31734;SDS011;18313;48.518;9.124;2023-05-07T02:15:14;4.88;;;3.13;;
31734;SDS011;18313;48.518;9.124;2023-05-07T02:20:27;5.82;;;3.40;;
31734;SDS011;18313;48.518;9.124;2023-05-07T02:22:55;8.70;;;3.60;;
31734;SDS011;18313;48.518;9.124;2023-05-07T02:25:22;6.78;;;3.22;;
31734;SDS011;18313;48.518;9.124;2023-05-07T02:27:49;5.53;;;3.20;;
31734;SDS011;18313;48.518;9.124;2023-05-07T02:30:16;4.15;;;2.75;;
31734;SDS011;18313;48.518;9.124;2023-05-07T02:32:43;5.15;;;3.08;;
31734;SDS011;18313;48.518;9.124;2023-05-07T02:35:11;3.88;;;3.00;;
31734;SDS011;18313;48.518;9.124;2023-05-07T02:37:38;8.18;;;3.25;;
31734;SDS011;18313;48.518;9.124;2023-05-07T02:40:05;6.90;;;3.20;;
31734;SDS011;18313;48.518;9.124;2023-05-07T02:42:32;6.90;;;3.95;;
31734;SDS011;18313;48.518;9.124;2023-05-07T02:44:59;6.00;;;4.15;;
31734;SDS011;18313;48.518;9.124;2023-05-07T02:47:26;5.78;;;3.58;;
31734;SDS011;18313;48.518;9.124;2023-05-07T02:49:54;7.72;;;3.85;;
31734;SDS011;18313;48.518;9.124;2023-05-07T02:52:21;5.03;;;3.40;;
31734;SDS011;18313;48.518;9.124;2023-05-07T02:54:49;7.60;;;4.15;;
31734;SDS011;18313;48.518;9.124;2023-05-07T02:57:16;5.90;;;3.20;;
31734;SDS011;18313;48.518;9.124;2023-05-07T02:59:43;5.90;;;3.47;;
31734;SDS011;18313;48.518;9.124;2023-05-07T03:02:10;6.25;;;3.40;;
31734;SDS011;18313;48.518;9.124;2023-05-07T03:04:38;5.25;;;3.40;;
31734;SDS011;18313;48.518;9.124;2023-05-07T03:07:06;7.43;;;3.15;;
31734;SDS011;18313;48.518;9.124;2023-05-07T03:09:33;5.13;;;3.30;;
31734;SDS011;18313;48.518;9.124;2023-05-07T03:12:01;4.35;;;2.90;;
31734;SDS011;18313;48.518;9.124;2023-05-07T03:14:28;6.55;;;2.90;;
31734;SDS011;18313;48.518;9.124;2023-05-07T03:16:55;7.15;;;3.45;;
31734;SDS011;18313;48.518;9.124;2023-05-07T03:19:22;6.68;;;3.30;;
31734;SDS011;18313;48.518;9.124;2023-05-07T03:21:49;5.80;;;3.42;;
31734;SDS011;18313;48.518;9.124;2023-05-07T03:24:17;6.45;;;3.28;;
31734;SDS011;18313;48.518;9.124;2023-05-07T03:26:44;8.52;;;3.25;;
31734;SDS011;18313;48.518;9.124;2023-05-07T03:29:11;7.32;;;3.13;;
31734;SDS011;18313;48.518;9.124;2023-05-07T03:31:38;5.13;;;3.15;;
31734;SDS011;18313;48.518;9.124;2023-05-07T03:34:06;11.05;;;3.50;;
31734;SDS011;18313;48.518;9.124;2023-05-07T03:36:33;5.55;;;3.50;;
31734;SDS011;18313;48.518;9.124;2023-05-07T03:39:00;6.20;;;3.40;;
31734;SDS011;18313;48.518;9.124;2023-05-07T03:41:28;6.32;;;3.47;;
31734;SDS011;18313;48.518;9.124;2023-05-07T03:43:56;6.25;;;3.40;;
31734;SDS011;18313;48.518;9.124;2023-05-07T03:46:23;5.40;;;3.60;;
31734;SDS011;18313;48.518;9.124;2023-05-07T03:48:52;6.50;;;3.60;;
31734;SDS011;18313;48.518;9.124;2023-05-07T03:51:19;7.10;;;3.97;;
31734;SDS011;18313;48.518;9.124;2023-05-07T03:53:46;5.45;;;3.53;;
31734;SDS011;18313;48.518;9.124;2023-05-07T03:56:14;7.93;;;4.07;;
31734;SDS011;18313;48.518;9.124;2023-05-07T03:58:43;4.93;;;3.63;;
31734;SDS011;18313;48.518;9.124;2023-05-07T04:01:10;5.63;;;3.90;;
31734;SDS011;18313;48.518;9.124;2023-05-07T04:03:38;5.57;;;3.70;;
31734;SDS011;18313;48.518;9.124;2023-05-07T04:06:05;5.30;;;3.97;;
31734;SDS011;18313;48.518;9.124;2023-05-07T04:08:33;7.40;;;3.88;;
31734;SDS011;18313;48.518;9.124;2023-05-07T04:11:00;6.00;;;3.85;;
31734;SDS011;18313;48.518;9.124;2023-05-07T04:13:27;8.00;;;3.85;;
31734;SDS011;18313;48.518;9.124;2023-05-07T04:15:54;7.72;;;4.07;;
31734;SDS011;18313;48.518;9.124;2023-05-07T04:18:22;6.97;;;3.70;;
31734;SDS011;18313;48.518;9.124;2023-05-07T04:20:49;6.82;;;3.92;;
31734;SDS011;18313;48.518;9.124;2023-05-07T04:23:16;6.78;;;3.80;;
31734;SDS011;18313;48.518;9.124;2023-05-07T04:25:43;7.45;;;3.95;;
31734;SDS011;18313;48.518;9.124;2023-05-07T04:28:10;5.70;;;3.72;;
31734;SDS011;18313;48.518;9.124;2023-05-07T04:30:38;5.68;;;3.53;;
31734;SDS011;18313;48.518;9.124;2023-05-07T04:33:05;5.55;;;3.97;;
31734;SDS011;18313;48.518;9.124;2023-05-07T04:35:33;5.65;;;3.72;;
31734;SDS011;18313;48.518;9.124;2023-05-07T04:38:01;6.22;;;3.35;;
31734;SDS011;18313;48.518;9.124;2023-05-07T04:40:28;8.18;;;3.75;;
31734;SDS011;18313;48.518;9.124;2023-05-07T04:42:56;5.82;;;4.22;;
31734;SDS011;18313;48.518;9.124;2023-05-07T04:45:23;6.30;;;3.97;;
31734;SDS011;18313;48.518;9.124;2023-05-07T04:47:50;5.57;;;3.58;;
31734;SDS011;18313;48.518;9.124;2023-05-07T04:50:17;6.22;;;3.63;;
31734;SDS011;18313;48.518;9.124;2023-05-07T04:52:46;5.85;;;3.88;;
31734;SDS011;18313;48.518;9.124;2023-05-07T04:55:13;7.03;;;3.78;;
31734;SDS011;18313;48.518;9.124;2023-05-07T04:57:41;5.05;;;3.50;;
31734;SDS011;18313;48.518;9.124;2023-05-07T05:00:08;6.75;;;3.78;;
31734;SDS011;18313;48.518;9.124;2023-05-07T05:02:36;7.20;;;3.30;;
31734;SDS011;18313;48.518;9.124;2023-05-07T05:05:03;8.63;;;3.83;;
31734;SDS011;18313;48.518;9.124;2023-05-07T05:07:31;6.00;;;3.60;;
31734;SDS011;18313;48.518;9.124;2023-05-07T05:09:58;7.07;;;3.92;;
31734;SDS011;18313;48.518;9.124;2023-05-07T05:12:25;6.30;;;3.25;;
31734;SDS011;18313;48.518;9.124;2023-05-07T05:14:53;5.38;;;3.78;;
31734;SDS011;18313;48.518;9.124;2023-05-07T05:17:20;5.85;;;3.40;;
31734;SDS011;18313;48.518;9.124;2023-05-07T05:19:47;5.97;;;3.20;;
31734;SDS011;18313;48.518;9.124;2023-05-07T05:22:15;6.30;;;3.47;;
31734;SDS011;18313;48.518;9.124;2023-05-07T05:24:42;5.90;;;3.47;;
31734;SDS011;18313;48.518;9.124;2023-05-07T05:27:09;9.48;;;3.50;;
31734;SDS011;18313;48.518;9.124;2023-05-07T05:29:36;4.70;;;3.20;;
31734;SDS011;18313;48.518;9.124;2023-05-07T05:32:03;5.28;;;3.58;;
31734;SDS011;18313;48.518;9.124;2023-05-07T05:34:30;7.20;;;3.30;;
31734;SDS011;18313;48.518;9.124;2023-05-07T05:36:59;5.63;;;3.13;;
31734;SDS011;18313;48.518;9.124;2023-05-07T05:39:27;6.07;;;3.45;;
31734;SDS011;18313;48.518;9.124;2023-05-07T05:41:54;8.88;;;3.70;;
31734;SDS011;18313;48.518;9.124;2023-05-07T05:44:21;6.78;;;3.17;;
31734;SDS011;18313;48.518;9.124;2023-05-07T05:46:48;5.97;;;3.42;;
31734;SDS011;18313;48.518;9.124;2023-05-07T05:49:16;4.40;;;3.10;;
31734;SDS011;18313;48.518;9.124;2023-05-07T05:51:43;6.78;;;3.67;;
31734;SDS011;18313;48.518;9.124;2023-05-07T05:54:10;5.50;;;2.92;;
31734;SDS011;18313;48.518;9.124;2023-05-07T05:56:37;5.32;;;3.00;;
31734;SDS011;18313;48.518;9.124;2023-05-07T05:59:04;4.80;;;2.95;;
31734;SDS011;18313;48.518;9.124;2023-05-07T06:01:32;4.10;;;2.80;;
31734;SDS011;18313;48.518;9.124;2023-05-07T06:03:59;8.23;;;2.92;;
31734;SDS011;18313;48.518;9.124;2023-05-07T06:06:26;5.05;;;3.10;;
31734;SDS011;18313;48.518;9.124;2023-05-07T06:08:54;4.93;;;3.10;;
31734;SDS011;18313;48.518;9.124;2023-05-07T06:11:21;6.25;;;2.97;;
31734;SDS011;18313;48.518;9.124;2023-05-07T06:13:49;6.40;;;2.92;;
31734;SDS011;18313;48.518;9.124;2023-05-07T06:16:16;6.05;;;3.30;;
31734;SDS011;18313;48.518;9.124;2023-05-07T06:18:43;3.85;;;2.80;;
31734;SDS011;18313;48.518;9.124;2023-05-07T06:21:13;4.35;;;2.50;;
31734;SDS011;18313;48.518;9.124;2023-05-07T06:23:40;4.88;;;3.13;;
31734;SDS011;18313;48.518;9.124;2023-05-07T06:26:07;4.90;;;2.65;;
31734;SDS011;18313;48.518;9.124;2023-05-07T06:28:34;5.70;;;2.83;;
31734;SDS011;18313;48.518;9.124;2023-05-07T06:33:41;5.97;;;2.80;;
31734;SDS011;18313;48.518;9.124;2023-05-07T06:36:08;5.78;;;2.45;;
31734;SDS011;18313;48.518;9.124;2023-05-07T06:38:36;5.80;;;2.70;;
31734;SDS011;18313;48.518;9.124;2023-05-07T06:41:03;4.47;;;2.53;;
31734;SDS011;18313;48.518;9.124;2023-05-07T06:43:31;5.03;;;2.78;;
31734;SDS011;18313;48.518;9.124;2023-05-07T06:45:59;4.88;;;2.90;;
31734;SDS011;18313;48.518;9.124;2023-05-07T06:48:26;6.57;;;2.75;;
31734;SDS011;18313;48.518;9.124;2023-05-07T06:50:53;8.93;;;3.03;;
31734;SDS011;18313;48.518;9.124;2023-05-07T06:53:22;4.80;;;2.50;;
31734;SDS011;18313;48.518;9.124;2023-05-07T06:55:49;8.48;;;3.08;;
31734;SDS011;18313;48.518;9.124;2023-05-07T06:58:16;4.43;;;2.83;;
31734;SDS011;18313;48.518;9.124;2023-05-07T07:00:43;8.70;;;2.83;;
31734;SDS011;18313;48.518;9.124;2023-05-07T07:03:10;5.03;;;2.60;;
31734;SDS011;18313;48.518;9.124;2023-05-07T07:05:38;5.07;;;2.70;;
31734;SDS011;18313;48.518;9.124;2023-05-07T07:08:06;5.22;;;2.38;;
31734;SDS011;18313;48.518;9.124;2023-05-07T07:10:34;5.25;;;3.00;;
31734;SDS011;18313;48.518;9.124;2023-05-07T07:13:01;4.43;;;2.58;;
31734;SDS011;18313;48.518;9.124;2023-05-07T07:15:28;4.22;;;2.67;;
31734;SDS011;18313;48.518;9.124;2023-05-07T07:17:55;5.60;;;3.05;;
31734;SDS011;18313;48.518;9.124;2023-05-07T07:20:23;4.32;;;2.70;;
31734;SDS011;18313;48.518;9.124;2023-05-07T07:22:50;4.50;;;2.80;;
31734;SDS011;18313;48.518;9.124;2023-05-07T07:25:17;4.82;;;2.90;;
31734;SDS011;18313;48.518;9.124;2023-05-07T07:27:44;5.00;;;2.67;;
31734;SDS011;18313;48.518;9.124;2023-05-07T07:30:11;6.88;;;3.10;;
31734;SDS011;18313;48.518;9.124;2023-05-07T07:32:38;5.95;;;2.47;;
31734;SDS011;18313;48.518;9.124;2023-05-07T07:35:06;4.20;;;2.42;;
31734;SDS011;18313;48.518;9.124;2023-05-07T07:37:33;4.72;;;2.40;;
31734;SDS011;18313;48.518;9.124;2023-05-07T07:40:01;7.88;;;2.97;;
31734;SDS011;18313;48.518;9.124;2023-05-07T07:42:27;5.43;;;2.22;;
31734;SDS011;18313;48.518;9.124;2023-05-07T07:44:55;3.53;;;2.20;;
31734;SDS011;18313;48.518;9.124;2023-05-07T07:47:23;3.80;;;2.28;;
31734;SDS011;18313;48.518;9.124;2023-05-07T07:49:50;5.57;;;2.88;;
31734;SDS011;18313;48.518;9.124;2023-05-07T07:52:18;3.38;;;2.05;;
31734;SDS011;18313;48.518;9.124;2023-05-07T07:54:45;5.68;;;2.08;;
31734;SDS011;18313;48.518;9.124;2023-05-07T07:57:12;4.88;;;2.30;;
31734;SDS011;18313;48.518;9.124;2023-05-07T07:59:39;3.65;;;1.95;;
31734;SDS011;18313;48.518;9.124;2023-05-07T08:02:06;3.80;;;2.10;;
31734;SDS011;18313;48.518;9.124;2023-05-07T08:04:33;3.50;;;1.95;;
31734;SDS011;18313;48.518;9.124;2023-05-07T08:07:02;5.70;;;2.38;;
31734;SDS011;18313;48.518;9.124;2023-05-07T08:09:29;2.65;;;1.90;;
31734;SDS011;18313;48.518;9.124;2023-05-07T08:11:57;2.83;;;1.70;;
31734;SDS011;18313;48.518;9.124;2023-05-07T08:14:24;5.05;;;2.40;;
31734;SDS011;18313;48.518;9.124;2023-05-07T08:16:51;5.60;;;2.03;;
31734;SDS011;18313;48.518;9.124;2023-05-07T08:19:19;4.13;;;2.30;;
31734;SDS011;18313;48.518;9.124;2023-05-07T08:21:46;4.18;;;1.92;;
31734;SDS011;18313;48.518;9.124;2023-05-07T08:24:14;4.10;;;1.98;;
31734;SDS011;18313;48.518;9.124;2023-05-07T08:26:42;4.10;;;1.80;;
31734;SDS011;18313;48.518;9.124;2023-05-07T08:29:09;3.63;;;1.95;;
31734;SDS011;18313;48.518;9.124;2023-05-07T08:31:37;4.05;;;2.13;;
31734;SDS011;18313;48.518;9.124;2023-05-07T08:34:05;4.35;;;2.30;;
31734;SDS011;18313;48.518;9.124;2023-05-07T08:36:35;5.30;;;1.90;;
31734;SDS011;18313;48.518;9.124;2023-05-07T08:39:02;3.75;;;2.10;;
31734;SDS011;18313;48.518;9.124;2023-05-07T08:41:29;5.43;;;2.20;;
31734;SDS011;18313;48.518;9.124;2023-05-07T08:43:58;4.90;;;2.55;;
31734;SDS011;18313;48.518;9.124;2023-05-07T08:46:26;2.70;;;1.83;;
31734;SDS011;18313;48.518;9.124;2023-05-07T08:48:57;7.75;;;2.20;;
31734;SDS011;18313;48.518;9.124;2023-05-07T08:51:25;4.95;;;2.08;;
31734;SDS011;18313;48.518;9.124;2023-05-07T08:53:52;6.25;;;2.20;;
31734;SDS011;18313;48.518;9.124;2023-05-07T08:56:19;7.00;;;2.20;;
31734;SDS011;18313;48.518;9.124;2023-05-07T08:58:48;4.25;;;2.03;;
31734;SDS011;18313;48.518;9.124;2023-05-07T09:01:15;7.13;;;1.90;;
31734;SDS011;18313;48.518;9.124;2023-05-07T09:03:44;3.35;;;2.00;;
31734;SDS011;18313;48.518;9.124;2023-05-07T09:06:12;3.97;;;1.90;;
31734;SDS011;18313;48.518;9.124;2023-05-07T09:08:39;3.33;;;2.00;;
31734;SDS011;18313;48.518;9.124;2023-05-07T09:11:06;4.75;;;2.08;;
31734;SDS011;18313;48.518;9.124;2023-05-07T09:13:33;4.32;;;1.85;;
31734;SDS011;18313;48.518;9.124;2023-05-07T09:16:09;5.10;;;1.70;;
31734;SDS011;18313;48.518;9.124;2023-05-07T09:18:44;5.53;;;1.90;;
31734;SDS011;18313;48.518;9.124;2023-05-07T09:21:14;4.07;;;1.93;;
31734;SDS011;18313;48.518;9.124;2023-05-07T09:23:42;2.60;;;1.70;;
31734;SDS011;18313;48.518;9.124;2023-05-07T09:26:09;2.83;;;1.55;;
31734;SDS011;18313;48.518;9.124;2023-05-07T09:28:41;3.38;;;1.63;;
31734;SDS011;18313;48.518;9.124;2023-05-07T09:31:09;3.45;;;1.50;;
31734;SDS011;18313;48.518;9.124;2023-05-07T09:33:37;4.47;;;1.88;;
31734;SDS011;18313;48.518;9.124;2023-05-07T09:36:06;5.75;;;1.88;;
31734;SDS011;18313;48.518;9.124;2023-05-07T09:38:36;4.80;;;2.20;;
31734;SDS011;18313;48.518;9.124;2023-05-07T09:41:04;3.08;;;1.80;;
31734;SDS011;18313;48.518;9.124;2023-05-07T09:43:33;3.38;;;1.77;;
31734;SDS011;18313;48.518;9.124;2023-05-07T09:46:09;2.80;;;1.58;;
31734;SDS011;18313;48.518;9.124;2023-05-07T09:48:41;2.92;;;1.73;;
31734;SDS011;18313;48.518;9.124;2023-05-07T09:51:44;3.42;;;1.60;;
31734;SDS011;18313;48.518;9.124;2023-05-07T09:54:11;4.68;;;1.73;;
31734;SDS011;18313;48.518;9.124;2023-05-07T09:56:39;4.00;;;1.60;;
31734;SDS011;18313;48.518;9.124;2023-05-07T09:59:08;3.42;;;1.80;;
31734;SDS011;18313;48.518;9.124;2023-05-07T10:01:40;3.30;;;1.58;;
31734;SDS011;18313;48.518;9.124;2023-05-07T10:04:09;2.70;;;1.50;;
31734;SDS011;18313;48.518;9.124;2023-05-07T10:06:40;5.07;;;1.50;;
31734;SDS011;18313;48.518;9.124;2023-05-07T10:09:08;3.97;;;1.60;;
31734;SDS011;18313;48.518;9.124;2023-05-07T10:11:37;2.50;;;1.50;;
31734;SDS011;18313;48.518;9.124;2023-05-07T10:14:04;3.78;;;1.75;;
31734;SDS011;18313;48.518;9.124;2023-05-07T10:16:32;3.00;;;1.50;;
31734;SDS011;18313;48.518;9.124;2023-05-07T10:19:06;2.50;;;1.30;;
31734;SDS011;18313;48.518;9.124;2023-05-07T10:21:36;3.15;;;1.40;;
31734;SDS011;18313;48.518;9.124;2023-05-07T10:24:06;3.85;;;1.50;;
31734;SDS011;18313;48.518;9.124;2023-05-07T10:26:36;2.67;;;1.35;;
31734;SDS011;18313;48.518;9.124;2023-05-07T10:29:06;3.67;;;1.33;;
31734;SDS011;18313;48.518;9.124;2023-05-07T10:34:29;2.28;;;1.40;;
31734;SDS011;18313;48.518;9.124;2023-05-07T10:37:00;3.70;;;1.20;;
31734;SDS011;18313;48.518;9.124;2023-05-07T10:39:29;2.10;;;1.10;;
31734;SDS011;18313;48.518;9.124;2023-05-07T10:41:56;2.58;;;1.20;;
31734;SDS011;18313;48.518;9.124;2023-05-07T10:44:33;4.50;;;1.52;;
31734;SDS011;18313;48.518;9.124;2023-05-07T10:47:11;2.55;;;1.40;;
31734;SDS011;18313;48.518;9.124;2023-05-07T10:52:22;4.25;;;1.50;;
31734;SDS011;18313;48.518;9.124;2023-05-07T10:57:51;2.45;;;1.13;;
31734;SDS011;18313;48.518;9.124;2023-05-07T11:03:04;4.18;;;1.10;;
31734;SDS011;18313;48.518;9.124;2023-05-07T11:05:34;4.30;;;1.52;;
31734;SDS011;18313;48.518;9.124;2023-05-07T11:08:04;2.78;;;1.20;;
31734;SDS011;18313;48.518;9.124;2023-05-07T11:13:18;3.22;;;1.30;;
31734;SDS011;18313;48.518;9.124;2023-05-07T11:16:15;2.63;;;1.20;;
31734;SDS011;18313;48.518;9.124;2023-05-07T11:18:51;3.47;;;1.27;;
31734;SDS011;18313;48.518;9.124;2023-05-07T11:23:59;3.78;;;1.30;;
31734;SDS011;18313;48.518;9.124;2023-05-07T11:26:28;2.95;;;1.27;;
31734;SDS011;18313;48.518;9.124;2023-05-07T11:28:56;2.22;;;1.20;;
31734;SDS011;18313;48.518;9.124;2023-05-07T11:31:26;3.17;;;1.30;;
31734;SDS011;18313;48.518;9.124;2023-05-07T11:33:55;4.03;;;1.38;;
31734;SDS011;18313;48.518;9.124;2023-05-07T11:36:22;2.78;;;1.40;;
31734;SDS011;18313;48.518;9.124;2023-05-07T11:38:50;4.78;;;1.25;;
31734;SDS011;18313;48.518;9.124;2023-05-07T11:41:17;4.20;;;1.23;;
31734;SDS011;18313;48.518;9.124;2023-05-07T11:43:56;3.92;;;1.58;;
31734;SDS011;18313;48.518;9.124;2023-05-07T11:46:24;2.15;;;1.05;;
31734;SDS011;18313;48.518;9.124;2023-05-07T11:48:51;2.28;;;1.10;;
31734;SDS011;18313;48.518;9.124;2023-05-07T11:51:19;2.45;;;1.30;;
31734;SDS011;18313;48.518;9.124;2023-05-07T11:53:47;2.80;;;1.40;;
31734;SDS011;18313;48.518;9.124;2023-05-07T11:56:17;2.95;;;1.17;;
31734;SDS011;18313;48.518;9.124;2023-05-07T11:58:45;3.78;;;1.30;;
31734;SDS011;18313;48.518;9.124;2023-05-07T12:01:14;2.28;;;1.23;;
31734;SDS011;18313;48.518;9.124;2023-05-07T12:03:43;5.10;;;1.60;;
31734;SDS011;18313;48.518;9.124;2023-05-07T12:06:13;4.47;;;1.40;;
31734;SDS011;18313;48.518;9.124;2023-05-07T12:08:42;3.28;;;1.30;;
31734;SDS011;18313;48.518;9.124;2023-05-07T12:11:14;3.15;;;1.20;;
31734;SDS011;18313;48.518;9.124;2023-05-07T12:13:44;2.67;;;1.25;;
31734;SDS011;18313;48.518;9.124;2023-05-07T12:16:11;5.10;;;1.48;;
31734;SDS011;18313;48.518;9.124;2023-05-07T12:18:39;3.10;;;1.40;;
31734;SDS011;18313;48.518;9.124;2023-05-07T12:21:07;3.97;;;1.52;;
31734;SDS011;18313;48.518;9.124;2023-05-07T12:23:35;5.53;;;1.52;;
31734;SDS011;18313;48.518;9.124;2023-05-07T12:26:03;3.67;;;1.48;;
31734;SDS011;18313;48.518;9.124;2023-05-07T12:28:36;2.85;;;1.70;;
31734;SDS011;18313;48.518;9.124;2023-05-07T12:31:05;3.55;;;1.50;;
31734;SDS011;18313;48.518;9.124;2023-05-07T12:33:33;3.42;;;1.35;;
31734;SDS011;18313;48.518;9.124;2023-05-07T12:36:07;1.90;;;1.40;;
31734;SDS011;18313;48.518;9.124;2023-05-07T12:38:35;3.08;;;1.40;;
31734;SDS011;18313;48.518;9.124;2023-05-07T12:41:03;4.18;;;1.70;;
31734;SDS011;18313;48.518;9.124;2023-05-07T12:43:31;2.83;;;1.63;;
31734;SDS011;18313;48.518;9.124;2023-05-07T12:46:01;2.75;;;1.30;;
31734;SDS011;18313;48.518;9.124;2023-05-07T12:48:35;2.60;;;1.48;;
31734;SDS011;18313;48.518;9.124;2023-05-07T12:51:03;2.75;;;1.17;;
31734;SDS011;18313;48.518;9.124;2023-05-07T12:53:32;4.90;;;1.40;;
31734;SDS011;18313;48.518;9.124;2023-05-07T12:55:59;3.72;;;1.30;;
31734;SDS011;18313;48.518;9.124;2023-05-07T12:58:27;2.65;;;1.33;;
31734;SDS011;18313;48.518;9.124;2023-05-07T13:00:56;2.55;;;1.10;;
31734;SDS011;18313;48.518;9.124;2023-05-07T13:03:27;5.22;;;1.42;;
31734;SDS011;18313;48.518;9.124;2023-05-07T13:05:59;2.40;;;1.20;;
31734;SDS011;18313;48.518;9.124;2023-05-07T13:08:32;3.67;;;1.30;;
31734;SDS011;18313;48.518;9.124;2023-05-07T13:11:04;3.47;;;1.50;;
31734;SDS011;18313;48.518;9.124;2023-05-07T13:13:31;4.68;;;1.90;;
31734;SDS011;18313;48.518;9.124;2023-05-07T13:16:00;5.82;;;2.15;;
31734;SDS011;18313;48.518;9.124;2023-05-07T13:18:29;4.50;;;1.98;;
31734;SDS011;18313;48.518;9.124;2023-05-07T13:20:58;11.02;;;2.80;;
31734;SDS011;18313;48.518;9.124;2023-05-07T13:23:27;8.52;;;2.90;;
31734;SDS011;18313;48.518;9.124;2023-05-07T13:25:54;17.25;;;5.22;;
31734;SDS011;18313;48.518;9.124;2023-05-07T13:28:23;25.20;;;8.15;;
31734;SDS011;18313;48.518;9.124;2023-05-07T13:30:50;22.58;;;8.95;;
31734;SDS011;18313;48.518;9.124;2023-05-07T13:33:18;13.82;;;6.68;;
31734;SDS011;18313;48.518;9.124;2023-05-07T13:35:45;7.38;;;3.17;;
31734;SDS011;18313;48.518;9.124;2023-05-07T13:38:12;9.07;;;3.17;;
31734;SDS011;18313;48.518;9.124;2023-05-07T13:40:42;7.03;;;2.80;;
31734;SDS011;18313;48.518;9.124;2023-05-07T13:43:09;6.57;;;2.90;;
31734;SDS011;18313;48.518;9.124;2023-05-07T13:45:37;5.22;;;2.88;;
31734;SDS011;18313;48.518;9.124;2023-05-07T13:48:04;6.32;;;2.75;;
31734;SDS011;18313;48.518;9.124;2023-05-07T13:50:31;5.57;;;2.80;;
31734;SDS011;18313;48.518;9.124;2023-05-07T13:52:58;5.25;;;2.60;;
31734;SDS011;18313;48.518;9.124;2023-05-07T13:55:25;26.45;;;3.53;;
31734;SDS011;18313;48.518;9.124;2023-05-07T13:57:56;6.57;;;3.15;;
31734;SDS011;18313;48.518;9.124;2023-05-07T14:00:27;8.13;;;3.40;;
31734;SDS011;18313;48.518;9.124;2023-05-07T14:02:55;5.63;;;3.30;;
31734;SDS011;18313;48.518;9.124;2023-05-07T14:05:23;6.78;;;3.05;;
31734;SDS011;18313;48.518;9.124;2023-05-07T14:07:51;7.20;;;3.00;;
31734;SDS011;18313;48.518;9.124;2023-05-07T14:10:18;6.53;;;2.78;;
31734;SDS011;18313;48.518;9.124;2023-05-07T14:12:46;8.05;;;3.58;;
31734;SDS011;18313;48.518;9.124;2023-05-07T14:15:13;4.75;;;3.17;;
31734;SDS011;18313;48.518;9.124;2023-05-07T14:17:42;5.32;;;3.40;;
31734;SDS011;18313;48.518;9.124;2023-05-07T14:20:10;8.75;;;3.15;;
31734;SDS011;18313;48.518;9.124;2023-05-07T14:22:39;5.68;;;3.30;;
31734;SDS011;18313;48.518;9.124;2023-05-07T14:25:06;5.22;;;2.95;;
31734;SDS011;18313;48.518;9.124;2023-05-07T14:27:36;8.15;;;3.35;;
31734;SDS011;18313;48.518;9.124;2023-05-07T14:30:03;5.32;;;2.85;;
31734;SDS011;18313;48.518;9.124;2023-05-07T14:32:30;8.05;;;2.97;;
31734;SDS011;18313;48.518;9.124;2023-05-07T14:34:57;6.78;;;2.85;;
31734;SDS011;18313;48.518;9.124;2023-05-07T14:37:24;7.20;;;3.08;;
31734;SDS011;18313;48.518;9.124;2023-05-07T14:39:51;5.95;;;2.50;;
31734;SDS011;18313;48.518;9.124;2023-05-07T14:42:18;8.75;;;2.83;;
31734;SDS011;18313;48.518;9.124;2023-05-07T14:44:45;6.45;;;2.47;;
31734;SDS011;18313;48.518;9.124;2023-05-07T14:47:14;4.93;;;2.30;;
31734;SDS011;18313;48.518;9.124;2023-05-07T14:49:45;4.85;;;2.45;;
31734;SDS011;18313;48.518;9.124;2023-05-07T14:52:12;3.70;;;2.00;;
31734;SDS011;18313;48.518;9.124;2023-05-07T14:54:39;3.75;;;2.05;;
31734;SDS011;18313;48.518;9.124;2023-05-07T14:57:06;5.70;;;2.10;;
31734;SDS011;18313;48.518;9.124;2023-05-07T14:59:35;5.07;;;2.42;;
31734;SDS011;18313;48.518;9.124;2023-05-07T15:02:05;6.53;;;2.50;;
31734;SDS011;18313;48.518;9.124;2023-05-07T15:04:34;3.53;;;2.20;;
31734;SDS011;18313;48.518;9.124;2023-05-07T15:07:01;6.45;;;2.72;;
31734;SDS011;18313;48.518;9.124;2023-05-07T15:09:28;8.25;;;2.80;;
31734;SDS011;18313;48.518;9.124;2023-05-07T15:11:55;5.55;;;3.03;;
31734;SDS011;18313;48.518;9.124;2023-05-07T15:14:22;6.00;;;2.85;;
31734;SDS011;18313;48.518;9.124;2023-05-07T15:16:49;6.25;;;2.75;;
31734;SDS011;18313;48.518;9.124;2023-05-07T15:19:16;5.20;;;2.80;;